sensor_id;sensor_type;location;lat;lon;timestamp;pressure;altitude;pressure_sealevel;temperature;humidity
32033;BME280;31720;52.638;9.216;2023-05-08T00:00:28;102058.25;;;10.60;100.00
32033;BME280;31720;52.638;9.216;2023-05-08T00:03:29;102054.06;;;10.55;100.00
32033;BME280;31720;52.638;9.216;2023-05-08T00:06:30;102053.66;;;10.40;100.00
32033;BME280;31720;52.638;9.216;2023-05-08T00:09:32;102057.91;;;10.45;100.00
32033;BME280;31720;52.638;9.216;2023-05-08T00:12:35;102069.41;;;10.40;100.00
32033;BME280;31720;52.638;9.216;2023-05-08T00:15:36;102061.59;;;10.37;100.00
32033;BME280;31720;52.638;9.216;2023-05-08T00:18:38;102066.78;;;10.40;100.00
32033;BME280;31720;52.638;9.216;2023-05-08T00:21:39;102065.88;;;10.40;100.00
32033;BME280;31720;52.638;9.216;2023-05-08T00:24:40;102054.88;;;10.29;100.00
32033;BME280;31720;52.638;9.216;2023-05-08T00:27:43;102062.09;;;10.21;100.00
32033;BME280;31720;52.638;9.216;2023-05-08T00:30:44;102062.91;;;10.23;100.00
32033;BME280;31720;52.638;9.216;2023-05-08T00:33:46;102059.59;;;10.18;100.00
32033;BME280;31720;52.638;9.216;2023-05-08T00:36:47;102070.38;;;10.07;100.00
32033;BME280;31720;52.638;9.216;2023-05-08T00:39:49;102068.59;;;10.09;100.00
32033;BME280;31720;52.638;9.216;2023-05-08T00:42:51;102067.69;;;10.10;100.00
32033;BME280;31720;52.638;9.216;2023-05-08T00:45:53;102067.13;;;9.99;100.00
32033;BME280;31720;52.638;9.216;2023-05-08T00:48:55;102066.09;;;10.04;100.00
32033;BME280;31720;52.638;9.216;2023-05-08T00:51:57;102059.09;;;10.05;100.00
32033;BME280;31720;52.638;9.216;2023-05-08T00:54:59;102053.13;;;9.98;100.00
32033;BME280;31720;52.638;9.216;2023-05-08T00:58:02;102064.50;;;9.99;100.00
32033;BME280;31720;52.638;9.216;2023-05-08T01:01:04;102057.59;;;9.96;100.00
32033;BME280;31720;52.638;9.216;2023-05-08T01:04:06;102058.72;;;9.87;100.00
32033;BME280;31720;52.638;9.216;2023-05-08T01:07:07;102059.78;;;9.82;100.00
32033;BME280;31720;52.638;9.216;2023-05-08T01:10:09;102050.91;;;9.84;100.00
32033;BME280;31720;52.638;9.216;2023-05-08T01:13:17;102042.47;;;9.75;100.00
32033;BME280;31720;52.638;9.216;2023-05-08T01:16:25;102048.56;;;9.75;100.00
32033;BME280;31720;52.638;9.216;2023-05-08T01:19:49;102038.97;;;9.74;100.00
32033;BME280;31720;52.638;9.216;2023-05-08T01:23:11;102048.75;;;9.69;100.00
32033;BME280;31720;52.638;9.216;2023-05-08T01:33:40;102049.16;;;9.55;100.00
32033;BME280;31720;52.638;9.216;2023-05-08T01:36:50;102040.44;;;9.53;100.00
32033;BME280;31720;52.638;9.216;2023-05-08T01:39:58;102039.69;;;9.50;100.00
32033;BME280;31720;52.638;9.216;2023-05-08T01:43:09;102041.59;;;9.43;100.00
32033;BME280;31720;52.638;9.216;2023-05-08T01:46:17;102036.31;;;9.45;100.00
32033;BME280;31720;52.638;9.216;2023-05-08T01:49:24;102037.94;;;9.49;100.00
32033;BME280;31720;52.638;9.216;2023-05-08T01:52:30;102038.06;;;9.46;100.00
32033;BME280;31720;52.638;9.216;2023-05-08T01:55:35;102032.88;;;9.43;100.00
32033;BME280;31720;52.638;9.216;2023-05-08T01:58:37;102035.69;;;9.35;100.00
32033;BME280;31720;52.638;9.216;2023-05-08T02:01:40;102032.16;;;9.37;100.00
32033;BME280;31720;52.638;9.216;2023-05-08T02:04:43;102023.81;;;9.23;100.00
32033;BME280;31720;52.638;9.216;2023-05-08T02:07:46;102016.84;;;9.22;100.00
32033;BME280;31720;52.638;9.216;2023-05-08T02:10:50;102017.03;;;9.14;100.00
32033;BME280;31720;52.638;9.216;2023-05-08T02:13:52;102021.13;;;9.25;100.00
32033;BME280;31720;52.638;9.216;2023-05-08T02:16:55;102017.94;;;9.13;100.00
32033;BME280;31720;52.638;9.216;2023-05-08T02:20:00;102025.75;;;9.15;100.00
32033;BME280;31720;52.638;9.216;2023-05-08T02:23:03;102025.81;;;9.13;100.00
32033;BME280;31720;52.638;9.216;2023-05-08T02:26:06;102029.41;;;9.09;100.00
32033;BME280;31720;52.638;9.216;2023-05-08T02:29:08;102035.34;;;9.16;100.00
32033;BME280;31720;52.638;9.216;2023-05-08T02:32:10;102030.97;;;9.17;100.00
32033;BME280;31720;52.638;9.216;2023-05-08T02:35:15;102028.56;;;9.09;100.00
32033;BME280;31720;52.638;9.216;2023-05-08T02:38:19;102029.56;;;9.03;100.00
32033;BME280;31720;52.638;9.216;2023-05-08T02:41:25;102036.38;;;9.10;100.00
32033;BME280;31720;52.638;9.216;2023-05-08T02:44:28;102035.47;;;9.11;100.00
32033;BME280;31720;52.638;9.216;2023-05-08T02:47:38;102029.44;;;9.08;100.00
32033;BME280;31720;52.638;9.216;2023-05-08T02:50:44;102030.88;;;8.87;100.00
32033;BME280;31720;52.638;9.216;2023-05-08T02:53:53;102039.44;;;8.94;100.00
32033;BME280;31720;52.638;9.216;2023-05-08T02:56:57;102042.06;;;8.94;100.00
32033;BME280;31720;52.638;9.216;2023-05-08T03:00:04;102034.28;;;8.91;100.00
32033;BME280;31720;52.638;9.216;2023-05-08T03:03:14;102034.16;;;8.95;100.00
32033;BME280;31720;52.638;9.216;2023-05-08T03:06:20;102031.63;;;8.92;100.00
32033;BME280;31720;52.638;9.216;2023-05-08T03:09:27;102032.78;;;8.80;100.00
32033;BME280;31720;52.638;9.216;2023-05-08T03:12:33;102030.31;;;8.74;100.00
32033;BME280;31720;52.638;9.216;2023-05-08T03:15:40;102033.75;;;8.76;100.00
32033;BME280;31720;52.638;9.216;2023-05-08T03:18:48;102024.91;;;8.82;100.00
32033;BME280;31720;52.638;9.216;2023-05-08T03:21:54;102029.28;;;8.80;100.00
32033;BME280;31720;52.638;9.216;2023-05-08T03:24:58;102022.47;;;8.74;100.00
32033;BME280;31720;52.638;9.216;2023-05-08T03:28:03;102027.53;;;8.80;100.00
32033;BME280;31720;52.638;9.216;2023-05-08T03:31:05;102031.13;;;8.78;100.00
32033;BME280;31720;52.638;9.216;2023-05-08T03:34:08;102034.78;;;8.71;100.00
32033;BME280;31720;52.638;9.216;2023-05-08T03:37:11;102020.03;;;8.67;100.00
32033;BME280;31720;52.638;9.216;2023-05-08T03:40:12;102018.38;;;8.62;100.00
32033;BME280;31720;52.638;9.216;2023-05-08T03:43:15;102016.41;;;8.72;100.00
32033;BME280;31720;52.638;9.216;2023-05-08T03:46:18;102020.94;;;8.66;100.00
32033;BME280;31720;52.638;9.216;2023-05-08T03:49:21;102014.03;;;8.63;100.00
32033;BME280;31720;52.638;9.216;2023-05-08T03:52:25;102011.28;;;8.68;100.00
32033;BME280;31720;52.638;9.216;2023-05-08T03:55:27;102014.94;;;8.60;100.00
32033;BME280;31720;52.638;9.216;2023-05-08T03:58:33;102015.97;;;8.53;100.00
32033;BME280;31720;52.638;9.216;2023-05-08T04:01:38;102010.84;;;8.50;100.00
32033;BME280;31720;52.638;9.216;2023-05-08T04:04:41;102009.28;;;8.42;100.00
32033;BME280;31720;52.638;9.216;2023-05-08T04:07:49;102010.28;;;8.34;100.00
32033;BME280;31720;52.638;9.216;2023-05-08T04:10:57;102005.22;;;8.28;100.00
32033;BME280;31720;52.638;9.216;2023-05-08T04:14:04;102004.25;;;8.32;100.00
32033;BME280;31720;52.638;9.216;2023-05-08T04:17:09;102007.97;;;8.22;100.00
32033;BME280;31720;52.638;9.216;2023-05-08T04:20:15;102007.19;;;8.19;100.00
32033;BME280;31720;52.638;9.216;2023-05-08T04:23:19;101995.63;;;8.27;100.00
32033;BME280;31720;52.638;9.216;2023-05-08T04:26:22;101991.31;;;8.25;100.00
32033;BME280;31720;52.638;9.216;2023-05-08T04:29:23;101987.69;;;8.30;100.00
32033;BME280;31720;52.638;9.216;2023-05-08T04:32:26;101998.25;;;8.27;100.00
32033;BME280;31720;52.638;9.216;2023-05-08T04:35:28;102005.06;;;8.34;100.00
32033;BME280;31720;52.638;9.216;2023-05-08T04:38:35;102002.66;;;8.25;100.00
32033;BME280;31720;52.638;9.216;2023-05-08T04:41:36;102008.72;;;8.27;100.00
32033;BME280;31720;52.638;9.216;2023-05-08T04:44:38;102000.03;;;8.25;100.00
32033;BME280;31720;52.638;9.216;2023-05-08T04:47:39;102006.13;;;8.27;100.00
32033;BME280;31720;52.638;9.216;2023-05-08T04:50:40;102011.41;;;8.24;100.00
32033;BME280;31720;52.638;9.216;2023-05-08T04:53:43;102022.91;;;8.19;100.00
32033;BME280;31720;52.638;9.216;2023-05-08T04:56:45;102028.94;;;8.22;100.00
32033;BME280;31720;52.638;9.216;2023-05-08T04:59:46;102026.31;;;8.22;100.00
32033;BME280;31720;52.638;9.216;2023-05-08T05:02:48;102036.63;;;8.28;100.00
32033;BME280;31720;52.638;9.216;2023-05-08T05:05:56;102039.97;;;8.36;100.00
32033;BME280;31720;52.638;9.216;2023-05-08T05:08:59;102040.69;;;8.43;100.00
32033;BME280;31720;52.638;9.216;2023-05-08T05:12:00;102046.66;;;8.50;100.00
32033;BME280;31720;52.638;9.216;2023-05-08T05:15:02;102047.50;;;8.50;100.00
32033;BME280;31720;52.638;9.216;2023-05-08T05:18:03;102044.44;;;8.31;100.00
32033;BME280;31720;52.638;9.216;2023-05-08T05:21:05;102037.31;;;8.38;100.00
32033;BME280;31720;52.638;9.216;2023-05-08T05:24:07;102043.25;;;8.46;100.00
32033;BME280;31720;52.638;9.216;2023-05-08T05:27:09;102053.66;;;8.48;100.00
32033;BME280;31720;52.638;9.216;2023-05-08T05:30:10;102053.63;;;8.49;100.00
32033;BME280;31720;52.638;9.216;2023-05-08T05:33:12;102051.78;;;8.54;100.00
32033;BME280;31720;52.638;9.216;2023-05-08T05:36:13;102043.81;;;8.57;100.00
32033;BME280;31720;52.638;9.216;2023-05-08T05:39:16;102042.78;;;8.64;100.00
32033;BME280;31720;52.638;9.216;2023-05-08T05:42:18;102048.84;;;8.68;100.00
32033;BME280;31720;52.638;9.216;2023-05-08T05:45:19;102052.22;;;8.72;100.00
32033;BME280;31720;52.638;9.216;2023-05-08T05:48:21;102052.25;;;8.70;100.00
32033;BME280;31720;52.638;9.216;2023-05-08T05:51:22;102053.28;;;8.64;100.00
32033;BME280;31720;52.638;9.216;2023-05-08T05:54:25;102055.59;;;8.77;100.00
32033;BME280;31720;52.638;9.216;2023-05-08T05:57:26;102052.81;;;8.83;100.00
32033;BME280;31720;52.638;9.216;2023-05-08T06:00:28;102055.16;;;8.95;100.00
32033;BME280;31720;52.638;9.216;2023-05-08T06:03:30;102066.50;;;8.96;100.00
32033;BME280;31720;52.638;9.216;2023-05-08T06:06:31;102064.44;;;9.07;100.00
32033;BME280;31720;52.638;9.216;2023-05-08T06:09:34;102066.00;;;9.14;100.00
32033;BME280;31720;52.638;9.216;2023-05-08T06:12:35;102066.81;;;9.18;100.00
32033;BME280;31720;52.638;9.216;2023-05-08T06:15:37;102061.63;;;9.14;100.00
32033;BME280;31720;52.638;9.216;2023-05-08T06:18:38;102067.69;;;9.17;100.00
32033;BME280;31720;52.638;9.216;2023-05-08T06:21:40;102077.13;;;9.24;100.00
32033;BME280;31720;52.638;9.216;2023-05-08T06:24:43;102078.78;;;9.26;100.00
32033;BME280;31720;52.638;9.216;2023-05-08T06:27:44;102076.81;;;9.36;100.00
32033;BME280;31720;52.638;9.216;2023-05-08T06:30:46;102081.94;;;9.39;100.00
32033;BME280;31720;52.638;9.216;2023-05-08T06:33:47;102074.66;;;9.50;100.00
32033;BME280;31720;52.638;9.216;2023-05-08T06:36:49;102071.97;;;9.52;100.00
32033;BME280;31720;52.638;9.216;2023-05-08T06:39:51;102068.50;;;9.51;100.00
32033;BME280;31720;52.638;9.216;2023-05-08T06:42:53;102065.94;;;9.50;100.00
32033;BME280;31720;52.638;9.216;2023-05-08T06:45:54;102063.91;;;9.59;100.00
32033;BME280;31720;52.638;9.216;2023-05-08T06:48:55;102069.88;;;9.64;100.00
32033;BME280;31720;52.638;9.216;2023-05-08T06:51:57;102068.78;;;9.72;100.00
32033;BME280;31720;52.638;9.216;2023-05-08T06:55:00;102066.81;;;9.80;100.00
32033;BME280;31720;52.638;9.216;2023-05-08T06:58:01;102065.75;;;9.85;100.00
32033;BME280;31720;52.638;9.216;2023-05-08T07:01:02;102061.41;;;9.86;100.00
32033;BME280;31720;52.638;9.216;2023-05-08T07:04:04;102063.06;;;9.88;100.00
32033;BME280;31720;52.638;9.216;2023-05-08T07:07:05;102066.38;;;9.95;100.00
32033;BME280;31720;52.638;9.216;2023-05-08T07:10:10;102058.22;;;10.04;100.00
32033;BME280;31720;52.638;9.216;2023-05-08T07:13:11;102061.59;;;10.08;100.00
32033;BME280;31720;52.638;9.216;2023-05-08T07:16:13;102065.91;;;10.10;100.00
32033;BME280;31720;52.638;9.216;2023-05-08T07:19:14;102061.28;;;10.19;100.00
32033;BME280;31720;52.638;9.216;2023-05-08T07:22:16;102063.75;;;10.25;100.00
32033;BME280;31720;52.638;9.216;2023-05-08T07:25:19;102066.19;;;10.31;100.00
32033;BME280;31720;52.638;9.216;2023-05-08T07:28:20;102071.22;;;10.38;100.00
32033;BME280;31720;52.638;9.216;2023-05-08T07:31:22;102071.91;;;10.44;100.00
32033;BME280;31720;52.638;9.216;2023-05-08T07:34:23;102071.63;;;10.53;100.00
32033;BME280;31720;52.638;9.216;2023-05-08T07:37:24;102067.84;;;10.61;100.00
32033;BME280;31720;52.638;9.216;2023-05-08T07:40:27;102065.03;;;10.68;100.00
32033;BME280;31720;52.638;9.216;2023-05-08T07:43:29;102069.16;;;10.75;100.00
32033;BME280;31720;52.638;9.216;2023-05-08T07:46:30;102066.28;;;10.82;100.00
32033;BME280;31720;52.638;9.216;2023-05-08T07:49:31;102068.63;;;10.91;100.00
32033;BME280;31720;52.638;9.216;2023-05-08T07:52:33;102052.78;;;10.93;100.00
32033;BME280;31720;52.638;9.216;2023-05-08T07:55:35;102052.69;;;10.96;100.00
32033;BME280;31720;52.638;9.216;2023-05-08T07:58:37;102052.53;;;11.01;100.00
32033;BME280;31720;52.638;9.216;2023-05-08T08:01:39;102045.44;;;11.03;100.00
32033;BME280;31720;52.638;9.216;2023-05-08T08:04:42;102047.81;;;11.10;100.00
32033;BME280;31720;52.638;9.216;2023-05-08T08:07:43;102050.22;;;11.16;100.00
32033;BME280;31720;52.638;9.216;2023-05-08T08:10:46;102038.41;;;11.28;100.00
32033;BME280;31720;52.638;9.216;2023-05-08T08:13:47;102035.34;;;11.40;100.00
32033;BME280;31720;52.638;9.216;2023-05-08T08:16:49;102035.72;;;11.53;100.00
32033;BME280;31720;52.638;9.216;2023-05-08T08:19:50;102038.91;;;11.63;100.00
32033;BME280;31720;52.638;9.216;2023-05-08T08:22:52;102041.38;;;11.67;100.00
32033;BME280;31720;52.638;9.216;2023-05-08T08:25:55;102037.69;;;11.72;100.00
32033;BME280;31720;52.638;9.216;2023-05-08T08:28:56;102032.41;;;11.72;100.00
32033;BME280;31720;52.638;9.216;2023-05-08T08:31:57;102031.06;;;11.85;100.00
32033;BME280;31720;52.638;9.216;2023-05-08T08:34:59;102028.09;;;11.94;100.00
32033;BME280;31720;52.638;9.216;2023-05-08T08:38:01;102030.38;;;12.03;100.00
32033;BME280;31720;52.638;9.216;2023-05-08T08:41:04;102027.94;;;12.21;100.00
32033;BME280;31720;52.638;9.216;2023-05-08T08:44:05;102020.69;;;12.26;100.00
32033;BME280;31720;52.638;9.216;2023-05-08T08:47:09;102019.44;;;12.36;100.00
32033;BME280;31720;52.638;9.216;2023-05-08T08:50:12;102016.63;;;12.40;100.00
32033;BME280;31720;52.638;9.216;2023-05-08T08:53:18;102016.09;;;12.53;100.00
32033;BME280;31720;52.638;9.216;2023-05-08T08:56:23;102014.63;;;12.67;100.00
32033;BME280;31720;52.638;9.216;2023-05-08T08:59:25;102007.56;;;12.68;100.00
32033;BME280;31720;52.638;9.216;2023-05-08T09:02:28;102010.13;;;12.69;100.00
32033;BME280;31720;52.638;9.216;2023-05-08T09:05:31;102013.41;;;12.75;100.00
32033;BME280;31720;52.638;9.216;2023-05-08T09:08:33;102014.28;;;12.75;100.00
32033;BME280;31720;52.638;9.216;2023-05-08T09:11:37;102014.22;;;12.77;100.00
32033;BME280;31720;52.638;9.216;2023-05-08T09:14:40;102010.59;;;12.79;100.00
32033;BME280;31720;52.638;9.216;2023-05-08T09:17:41;102013.22;;;12.79;100.00
32033;BME280;31720;52.638;9.216;2023-05-08T09:20:43;101999.66;;;12.88;100.00
32033;BME280;31720;52.638;9.216;2023-05-08T09:23:54;102003.28;;;13.06;100.00
32033;BME280;31720;52.638;9.216;2023-05-08T09:26:57;101996.44;;;13.23;100.00
32033;BME280;31720;52.638;9.216;2023-05-08T09:30:02;101997.13;;;13.26;100.00
32033;BME280;31720;52.638;9.216;2023-05-08T09:33:03;101999.84;;;13.45;100.00
32033;BME280;31720;52.638;9.216;2023-05-08T09:36:05;101998.69;;;13.51;100.00
32033;BME280;31720;52.638;9.216;2023-05-08T09:39:09;102002.63;;;13.61;100.00
32033;BME280;31720;52.638;9.216;2023-05-08T09:42:13;102007.63;;;13.86;100.00
32033;BME280;31720;52.638;9.216;2023-05-08T09:45:30;102003.22;;;13.86;100.00
32033;BME280;31720;52.638;9.216;2023-05-08T09:48:41;102000.47;;;14.07;100.00
32033;BME280;31720;52.638;9.216;2023-05-08T09:51:50;102002.38;;;14.22;100.00
32033;BME280;31720;52.638;9.216;2023-05-08T09:54:56;102003.50;;;14.35;100.00
32033;BME280;31720;52.638;9.216;2023-05-08T09:58:00;102005.91;;;14.40;100.00
32033;BME280;31720;52.638;9.216;2023-05-08T10:01:02;102005.41;;;14.51;100.00
32033;BME280;31720;52.638;9.216;2023-05-08T10:04:04;102005.72;;;14.62;100.00
32033;BME280;31720;52.638;9.216;2023-05-08T10:07:05;101997.63;;;14.65;100.00
32033;BME280;31720;52.638;9.216;2023-05-08T10:10:07;102001.69;;;14.72;100.00
32033;BME280;31720;52.638;9.216;2023-05-08T10:13:10;101997.50;;;14.85;100.00
32033;BME280;31720;52.638;9.216;2023-05-08T10:16:14;101990.56;;;15.00;100.00
32033;BME280;31720;52.638;9.216;2023-05-08T10:19:17;102000.19;;;15.18;100.00
32033;BME280;31720;52.638;9.216;2023-05-08T10:22:19;102003.59;;;15.20;100.00
32033;BME280;31720;52.638;9.216;2023-05-08T10:25:23;102009.44;;;15.27;100.00
32033;BME280;31720;52.638;9.216;2023-05-08T10:28:32;102000.53;;;15.28;100.00
32033;BME280;31720;52.638;9.216;2023-05-08T10:31:39;102005.84;;;15.28;100.00
32033;BME280;31720;52.638;9.216;2023-05-08T10:34:43;101999.28;;;15.35;100.00
32033;BME280;31720;52.638;9.216;2023-05-08T10:37:48;101996.47;;;15.38;100.00
32033;BME280;31720;52.638;9.216;2023-05-08T10:40:49;101996.06;;;15.46;100.00
32033;BME280;31720;52.638;9.216;2023-05-08T10:43:58;101992.44;;;15.80;100.00
32033;BME280;31720;52.638;9.216;2023-05-08T10:47:06;101992.38;;;15.82;100.00
32033;BME280;31720;52.638;9.216;2023-05-08T10:50:21;101991.25;;;16.02;100.00
32033;BME280;31720;52.638;9.216;2023-05-08T10:53:30;101985.94;;;16.02;100.00
32033;BME280;31720;52.638;9.216;2023-05-08T10:56:37;101982.28;;;16.04;100.00
32033;BME280;31720;52.638;9.216;2023-05-08T10:59:43;101978.25;;;16.13;100.00
32033;BME280;31720;52.638;9.216;2023-05-08T11:02:47;101978.31;;;16.27;100.00
32033;BME280;31720;52.638;9.216;2023-05-08T11:05:50;101979.06;;;16.45;100.00
32033;BME280;31720;52.638;9.216;2023-05-08T11:08:51;101976.28;;;16.62;100.00
32033;BME280;31720;52.638;9.216;2023-05-08T11:12:07;101971.44;;;16.69;100.00
32033;BME280;31720;52.638;9.216;2023-05-08T11:15:11;101964.22;;;16.87;100.00
32033;BME280;31720;52.638;9.216;2023-05-08T11:18:15;101964.69;;;17.08;100.00
32033;BME280;31720;52.638;9.216;2023-05-08T11:21:19;101967.72;;;17.30;100.00
32033;BME280;31720;52.638;9.216;2023-05-08T11:24:32;101964.50;;;17.39;100.00
32033;BME280;31720;52.638;9.216;2023-05-08T11:31:03;101965.03;;;17.73;99.91
32033;BME280;31720;52.638;9.216;2023-05-08T11:34:44;101958.69;;;17.75;100.00
32033;BME280;31720;52.638;9.216;2023-05-08T11:38:16;101963.94;;;18.04;100.00
32033;BME280;31720;52.638;9.216;2023-05-08T11:41:21;101964.84;;;18.17;100.00
32033;BME280;31720;52.638;9.216;2023-05-08T11:44:24;101962.81;;;18.21;99.35
32033;BME280;31720;52.638;9.216;2023-05-08T11:47:34;101946.28;;;18.43;100.00
32033;BME280;31720;52.638;9.216;2023-05-08T11:50:37;101954.69;;;18.77;97.83
32033;BME280;31720;52.638;9.216;2023-05-08T11:53:40;101951.28;;;18.87;98.07
32033;BME280;31720;52.638;9.216;2023-05-08T11:56:45;101961.63;;;18.92;92.62
32033;BME280;31720;52.638;9.216;2023-05-08T11:59:48;101959.91;;;18.91;92.71
32033;BME280;31720;52.638;9.216;2023-05-08T12:02:52;101960.88;;;18.90;90.84
32033;BME280;31720;52.638;9.216;2023-05-08T12:05:55;101967.47;;;18.97;88.02
32033;BME280;31720;52.638;9.216;2023-05-08T12:08:57;101966.09;;;19.04;87.42
32033;BME280;31720;52.638;9.216;2023-05-08T12:11:59;101971.00;;;19.10;86.30
32033;BME280;31720;52.638;9.216;2023-05-08T12:15:00;101965.44;;;19.13;88.19
32033;BME280;31720;52.638;9.216;2023-05-08T12:18:03;101963.72;;;19.38;82.79
32033;BME280;31720;52.638;9.216;2023-05-08T12:21:04;101961.34;;;19.46;77.86
32033;BME280;31720;52.638;9.216;2023-05-08T12:24:07;101964.22;;;19.56;73.83
32033;BME280;31720;52.638;9.216;2023-05-08T12:27:11;101961.44;;;19.57;70.60
32033;BME280;31720;52.638;9.216;2023-05-08T12:30:13;101957.28;;;19.66;75.20
32033;BME280;31720;52.638;9.216;2023-05-08T12:33:17;101959.53;;;19.96;76.64
32033;BME280;31720;52.638;9.216;2023-05-08T12:36:18;101966.81;;;20.18;72.65
32033;BME280;31720;52.638;9.216;2023-05-08T12:39:20;101962.13;;;20.33;72.45
32033;BME280;31720;52.638;9.216;2023-05-08T12:42:21;101958.22;;;20.49;71.34
32033;BME280;31720;52.638;9.216;2023-05-08T12:45:24;101950.84;;;20.53;61.65
32033;BME280;31720;52.638;9.216;2023-05-08T12:48:27;101953.91;;;20.71;62.35
32033;BME280;31720;52.638;9.216;2023-05-08T12:51:29;101945.06;;;20.82;62.63
32033;BME280;31720;52.638;9.216;2023-05-08T12:54:32;101947.00;;;20.80;60.53
32033;BME280;31720;52.638;9.216;2023-05-08T12:57:35;101938.88;;;20.81;62.70
32033;BME280;31720;52.638;9.216;2023-05-08T13:00:38;101936.22;;;20.92;61.42
32033;BME280;31720;52.638;9.216;2023-05-08T13:03:41;101935.13;;;21.06;61.42
32033;BME280;31720;52.638;9.216;2023-05-08T13:06:52;101941.84;;;21.34;59.42
32033;BME280;31720;52.638;9.216;2023-05-08T13:09:55;101933.44;;;21.39;57.71
32033;BME280;31720;52.638;9.216;2023-05-08T13:12:57;101927.84;;;21.42;55.59
32033;BME280;31720;52.638;9.216;2023-05-08T13:16:01;101925.41;;;21.39;55.07
32033;BME280;31720;52.638;9.216;2023-05-08T13:19:04;101929.06;;;21.49;54.25
32033;BME280;31720;52.638;9.216;2023-05-08T13:22:06;101919.56;;;21.56;57.77
32033;BME280;31720;52.638;9.216;2023-05-08T13:25:08;101919.69;;;21.55;56.47
32033;BME280;31720;52.638;9.216;2023-05-08T13:28:09;101912.66;;;21.53;53.55
32033;BME280;31720;52.638;9.216;2023-05-08T13:31:11;101908.25;;;21.52;56.66
32033;BME280;31720;52.638;9.216;2023-05-08T13:34:13;101907.78;;;21.59;56.16
32033;BME280;31720;52.638;9.216;2023-05-08T13:37:15;101895.94;;;21.72;55.90
32033;BME280;31720;52.638;9.216;2023-05-08T13:40:16;101897.63;;;21.85;53.43
32033;BME280;31720;52.638;9.216;2023-05-08T13:43:18;101902.00;;;21.74;54.47
32033;BME280;31720;52.638;9.216;2023-05-08T13:46:19;101905.47;;;21.97;54.55
32033;BME280;31720;52.638;9.216;2023-05-08T13:49:22;101891.31;;;22.07;53.25
32033;BME280;31720;52.638;9.216;2023-05-08T13:52:25;101889.13;;;22.12;54.01
32033;BME280;31720;52.638;9.216;2023-05-08T13:55:28;101880.06;;;22.24;55.03
32033;BME280;31720;52.638;9.216;2023-05-08T13:58:29;101881.50;;;22.28;54.95
32033;BME280;31720;52.638;9.216;2023-05-08T14:01:31;101879.06;;;22.25;54.34
32033;BME280;31720;52.638;9.216;2023-05-08T14:04:34;101881.03;;;22.23;53.18
32033;BME280;31720;52.638;9.216;2023-05-08T14:07:35;101875.84;;;22.21;53.67
32033;BME280;31720;52.638;9.216;2023-05-08T14:10:37;101874.84;;;22.22;53.82
32033;BME280;31720;52.638;9.216;2023-05-08T14:13:39;101877.72;;;22.31;52.06
32033;BME280;31720;52.638;9.216;2023-05-08T14:16:41;101868.13;;;22.49;53.61
32033;BME280;31720;52.638;9.216;2023-05-08T14:19:43;101867.28;;;22.48;53.52
32033;BME280;31720;52.638;9.216;2023-05-08T14:22:46;101856.47;;;22.39;51.87
32033;BME280;31720;52.638;9.216;2023-05-08T14:25:47;101862.31;;;22.44;51.86
32033;BME280;31720;52.638;9.216;2023-05-08T14:28:48;101859.22;;;22.48;53.47
32033;BME280;31720;52.638;9.216;2023-05-08T14:31:50;101857.34;;;22.39;52.01
32033;BME280;31720;52.638;9.216;2023-05-08T14:34:52;101863.31;;;22.52;53.61
32033;BME280;31720;52.638;9.216;2023-05-08T14:37:54;101855.03;;;22.56;54.87
32033;BME280;31720;52.638;9.216;2023-05-08T14:40:55;101841.09;;;22.62;53.89
32033;BME280;31720;52.638;9.216;2023-05-08T14:43:57;101848.72;;;22.66;51.29
32033;BME280;31720;52.638;9.216;2023-05-08T14:46:58;101852.38;;;22.65;52.18
32033;BME280;31720;52.638;9.216;2023-05-08T14:50:01;101837.03;;;22.67;53.72
32033;BME280;31720;52.638;9.216;2023-05-08T14:53:02;101832.56;;;22.77;54.94
32033;BME280;31720;52.638;9.216;2023-05-08T14:56:04;101833.22;;;22.70;52.53
32033;BME280;31720;52.638;9.216;2023-05-08T14:59:06;101820.25;;;22.65;52.26
32033;BME280;31720;52.638;9.216;2023-05-08T15:02:08;101833.03;;;22.62;52.06
32033;BME280;31720;52.638;9.216;2023-05-08T15:05:11;101831.81;;;22.66;52.29
32033;BME280;31720;52.638;9.216;2023-05-08T15:08:13;101832.53;;;22.68;53.88
32033;BME280;31720;52.638;9.216;2023-05-08T15:11:15;101830.03;;;22.76;53.31
32033;BME280;31720;52.638;9.216;2023-05-08T15:14:16;101824.28;;;22.81;52.91
32033;BME280;31720;52.638;9.216;2023-05-08T15:17:17;101829.16;;;22.75;51.65
32033;BME280;31720;52.638;9.216;2023-05-08T15:20:20;101829.72;;;22.69;51.21
32033;BME280;31720;52.638;9.216;2023-05-08T15:23:22;101824.44;;;22.58;52.92
32033;BME280;31720;52.638;9.216;2023-05-08T15:26:23;101825.56;;;22.56;55.03
32033;BME280;31720;52.638;9.216;2023-05-08T15:29:25;101818.91;;;22.50;53.44
32033;BME280;31720;52.638;9.216;2023-05-08T15:32:26;101819.03;;;22.48;55.02
32033;BME280;31720;52.638;9.216;2023-05-08T15:35:29;101812.56;;;22.51;54.38
32033;BME280;31720;52.638;9.216;2023-05-08T15:38:30;101807.44;;;22.48;53.46
32033;BME280;31720;52.638;9.216;2023-05-08T15:41:32;101815.97;;;22.53;55.51
32033;BME280;31720;52.638;9.216;2023-05-08T15:44:35;101820.19;;;22.56;53.99
32033;BME280;31720;52.638;9.216;2023-05-08T15:47:36;101820.75;;;22.49;54.29
32033;BME280;31720;52.638;9.216;2023-05-08T15:50:39;101813.09;;;22.45;52.86
32033;BME280;31720;52.638;9.216;2023-05-08T15:53:40;101819.38;;;22.34;53.33
32033;BME280;31720;52.638;9.216;2023-05-08T15:56:42;101812.56;;;22.30;55.45
32033;BME280;31720;52.638;9.216;2023-05-08T15:59:43;101812.91;;;22.37;54.21
32033;BME280;31720;52.638;9.216;2023-05-08T16:02:45;101807.09;;;22.32;53.62
32033;BME280;31720;52.638;9.216;2023-05-08T16:05:48;101812.25;;;22.23;53.28